createdAt,value
2022-10-26T00:01:19.742Z,12.37
2022-10-26T00:03:47.055Z,12.27
2022-10-26T00:06:16.304Z,12.24
2022-10-26T00:08:46.482Z,12.24
2022-10-26T00:11:16.322Z,12.22
2022-10-26T00:13:47.318Z,12.13
2022-10-26T00:16:20.510Z,12.01
2022-10-26T00:18:47.870Z,11.91
2022-10-26T00:21:17.734Z,11.91
2022-10-26T00:23:46.529Z,11.91
2022-10-26T00:26:15.717Z,11.83
2022-10-26T00:28:42.230Z,11.79
2022-10-26T00:31:13.753Z,11.80
2022-10-26T00:33:40.852Z,11.60
2022-10-26T00:36:09.996Z,11.67
2022-10-26T00:38:37.545Z,11.64
2022-10-26T00:41:06.403Z,11.52
2022-10-26T00:43:36.895Z,11.26
2022-10-26T00:46:14.190Z,11.28
2022-10-26T00:48:48.296Z,11.25
2022-10-26T00:51:24.982Z,11.39
2022-10-26T00:53:52.796Z,11.30
2022-10-26T00:56:19.476Z,11.50
2022-10-26T00:58:46.950Z,11.52
2022-10-26T01:01:16.094Z,11.43
2022-10-26T01:03:42.962Z,11.43
2022-10-26T01:06:11.685Z,11.48
2022-10-26T01:08:38.921Z,11.35
2022-10-26T01:11:07.854Z,11.32
2022-10-26T01:13:36.179Z,11.34
2022-10-26T01:16:09.690Z,10.90
2022-10-26T01:19:11.320Z,10.82
2022-10-26T01:22:06.703Z,10.87
2022-10-26T01:24:56.028Z,10.96
2022-10-26T01:27:34.159Z,10.98
2022-10-26T01:30:22.154Z,11.06
2022-10-26T01:32:55.074Z,11.26
2022-10-26T01:35:24.761Z,11.14
2022-10-26T01:38:12.037Z,11.19
2022-10-26T01:40:45.942Z,11.28
2022-10-26T01:43:19.259Z,11.37
2022-10-26T01:45:48.441Z,11.46
2022-10-26T01:48:18.056Z,11.44
2022-10-26T01:50:47.939Z,11.52
2022-10-26T01:53:19.012Z,11.55
2022-10-26T01:55:48.441Z,11.65
2022-10-26T01:58:38.850Z,11.41
2022-10-26T02:01:37.426Z,11.41
2022-10-26T02:04:27.731Z,11.41
2022-10-26T02:07:15.424Z,11.50
2022-10-26T02:09:46.387Z,11.36
2022-10-26T02:12:39.792Z,11.33
2022-10-26T02:15:28.633Z,11.45
2022-10-26T02:18:09.841Z,11.42
2022-10-26T02:20:43.929Z,11.42
2022-10-26T02:23:12.358Z,11.21
2022-10-26T02:25:47.655Z,11.27
2022-10-26T02:28:19.747Z,11.23
2022-10-26T02:30:52.597Z,11.12
2022-10-26T02:33:20.830Z,11.21
2022-10-26T02:35:52.892Z,11.21
2022-10-26T02:38:21.049Z,11.35
2022-10-26T02:40:52.406Z,11.35
2022-10-26T02:43:22.358Z,11.34
2022-10-26T02:46:00.886Z,11.30
2022-10-26T02:48:27.427Z,11.34
2022-10-26T02:51:03.641Z,11.35
2022-10-26T02:53:47.842Z,11.09
2022-10-26T02:56:22.150Z,11.29
2022-10-26T02:58:56.733Z,11.32
2022-10-26T03:01:26.153Z,11.29
2022-10-26T03:03:58.018Z,11.45
2022-10-26T03:06:27.379Z,11.51
2022-10-26T03:08:53.919Z,11.41
2022-10-26T03:11:20.512Z,11.26
2022-10-26T03:13:50.005Z,11.20
2022-10-26T03:16:18.990Z,10.91
2022-10-26T03:18:45.528Z,10.48
2022-10-26T03:21:12.189Z,10.06
2022-10-26T03:23:38.937Z,10.17
2022-10-26T03:26:05.928Z,10.21
2022-10-26T03:28:34.793Z,10.25
2022-10-26T03:31:03.562Z,10.28
2022-10-26T03:33:32.384Z,10.34
2022-10-26T03:36:01.250Z,10.48
2022-10-26T03:38:27.863Z,10.55
2022-10-26T03:40:54.408Z,10.51
2022-10-26T03:43:23.788Z,10.57
2022-10-26T03:45:52.457Z,10.62
2022-10-26T03:48:19.098Z,10.57
2022-10-26T03:50:48.185Z,10.52
2022-10-26T03:53:14.720Z,10.47
2022-10-26T03:55:47.100Z,10.56
2022-10-26T03:58:18.972Z,10.65
2022-10-26T04:00:45.602Z,10.55
2022-10-26T04:03:12.172Z,10.58
2022-10-26T04:05:41.015Z,10.65
2022-10-26T04:08:10.151Z,10.58
2022-10-26T04:10:38.903Z,10.58
2022-10-26T04:13:05.499Z,10.53
2022-10-26T04:15:34.399Z,10.28
2022-10-26T04:18:02.628Z,10.36
2022-10-26T04:20:31.275Z,10.16
2022-10-26T04:22:59.653Z,10.13
2022-10-26T04:25:30.223Z,10.20
2022-10-26T04:28:00.879Z,10.08
2022-10-26T04:30:27.516Z,10.08
2022-10-26T04:32:54.190Z,10.17
2022-10-26T04:35:23.252Z,10.26
2022-10-26T04:37:49.721Z,10.15
2022-10-26T04:40:18.871Z,9.99
2022-10-26T04:42:52.079Z,9.67
2022-10-26T04:45:18.905Z,9.65
2022-10-26T04:47:45.485Z,9.68
2022-10-26T04:50:13.344Z,9.71
2022-10-26T04:52:40.512Z,9.59
2022-10-26T04:55:07.641Z,9.70
2022-10-26T04:57:34.867Z,9.84
2022-10-26T05:00:04.927Z,9.89
2022-10-26T05:02:31.654Z,9.72
2022-10-26T05:05:00.984Z,9.78
2022-10-26T05:07:27.730Z,9.80
2022-10-26T05:09:54.476Z,9.71
2022-10-26T05:12:26.347Z,9.73
2022-10-26T05:14:52.959Z,9.90
2022-10-26T05:17:19.630Z,9.96
2022-10-26T05:19:55.381Z,9.98
2022-10-26T05:22:22.776Z,9.68
2022-10-26T05:24:51.589Z,9.55
2022-10-26T05:27:22.952Z,9.68
2022-10-26T05:29:51.958Z,9.71
2022-10-26T05:32:21.003Z,10.85
2022-10-26T05:34:47.514Z,10.77
2022-10-26T05:37:16.359Z,10.48
2022-10-26T05:39:43.597Z,10.34
2022-10-26T05:42:13.011Z,10.20
2022-10-26T05:44:39.593Z,10.21
2022-10-26T05:47:08.892Z,10.21
2022-10-26T05:49:37.673Z,10.20
2022-10-26T05:52:04.827Z,10.07
2022-10-26T05:54:31.393Z,10.16
2022-10-26T05:56:58.368Z,9.88
2022-10-26T05:59:25.423Z,9.79
2022-10-26T06:02:01.925Z,9.76
2022-10-26T06:04:48.230Z,9.94
2022-10-26T06:07:17.521Z,10.08
2022-10-26T06:09:44.863Z,9.97
2022-10-26T06:12:16.937Z,10.03
2022-10-26T06:14:46.436Z,10.10
2022-10-26T06:17:46.547Z,10.12
2022-10-26T06:21:11.079Z,10.11
2022-10-26T06:24:03.762Z,9.98
2022-10-26T06:26:46.354Z,9.91
2022-10-26T06:29:18.042Z,10.01
2022-10-26T06:31:46.052Z,10.12
2022-10-26T06:34:18.339Z,10.16
2022-10-26T06:36:49.874Z,10.22
2022-10-26T06:39:20.332Z,10.08
2022-10-26T06:41:47.207Z,10.21
2022-10-26T06:44:24.484Z,10.47
2022-10-26T06:47:03.552Z,10.60
2022-10-26T06:49:53.702Z,10.63
2022-10-26T06:52:33.083Z,10.65
2022-10-26T06:55:02.686Z,10.79
2022-10-26T06:57:37.190Z,10.85
2022-10-26T07:00:21.039Z,11.05
2022-10-26T07:02:50.764Z,11.10
2022-10-26T07:05:18.118Z,10.92
2022-10-26T07:07:48.706Z,11.03
2022-10-26T07:10:17.924Z,11.17
2022-10-26T07:12:46.667Z,11.22
2022-10-26T07:15:15.544Z,11.24
2022-10-26T07:17:49.799Z,11.34
2022-10-26T07:20:21.329Z,11.26
2022-10-26T07:22:58.833Z,11.22
2022-10-26T07:25:31.326Z,11.14
2022-10-26T07:27:59.469Z,11.36
2022-10-26T07:30:31.254Z,11.42
2022-10-26T07:33:04.833Z,11.49
2022-10-26T07:35:32.624Z,11.61
2022-10-26T07:41:48.649Z,11.63
2022-10-26T07:44:17.536Z,11.75
2022-10-26T07:46:44.079Z,11.54
2022-10-26T07:49:20.765Z,11.65
2022-10-26T07:51:50.526Z,11.78
2022-10-26T07:54:26.725Z,11.72
2022-10-26T07:56:53.533Z,12.01
2022-10-26T07:59:22.609Z,12.08
2022-10-26T08:01:51.500Z,12.09
2022-10-26T08:04:22.986Z,12.31
2022-10-26T08:06:54.543Z,12.14
2022-10-26T08:09:23.476Z,12.28
2022-10-26T08:11:50.142Z,12.23
2022-10-26T08:14:19.872Z,12.27
2022-10-26T08:16:46.644Z,12.36
2022-10-26T08:19:15.859Z,12.63
2022-10-26T08:21:45.387Z,12.81
2022-10-26T08:24:14.381Z,12.94
2022-10-26T08:26:42.133Z,12.89
2022-10-26T08:29:08.785Z,13.08
2022-10-26T08:31:35.526Z,13.19
2022-10-26T08:34:04.649Z,13.18
2022-10-26T08:36:33.733Z,13.42
2022-10-26T08:41:43.572Z,13.77
2022-10-26T08:44:27.873Z,13.76
2022-10-26T08:47:04.441Z,13.86
2022-10-26T08:49:40.595Z,13.92
2022-10-26T08:52:17.425Z,13.99
2022-10-26T08:54:56.719Z,14.26
2022-10-26T08:57:25.627Z,14.45
2022-10-26T08:59:57.557Z,14.43
2022-10-26T09:02:24.879Z,14.53
2022-10-26T09:04:57.208Z,14.56
2022-10-26T09:08:01.153Z,14.62
2022-10-26T09:10:30.931Z,14.90
2022-10-26T09:13:01.736Z,14.92
2022-10-26T09:16:03.705Z,14.91
2022-10-26T09:19:02.799Z,14.96
2022-10-26T09:22:26.535Z,15.11
2022-10-26T09:25:14.343Z,15.20
2022-10-26T09:27:48.513Z,15.20
2022-10-26T09:30:23.619Z,15.22
2022-10-26T09:33:22.780Z,15.19
2022-10-26T09:35:58.383Z,15.42
2022-10-26T09:38:30.365Z,15.26
2022-10-26T09:41:05.966Z,15.18
2022-10-26T09:46:18.609Z,15.61
2022-10-26T09:48:51.265Z,15.92
2022-10-26T09:51:20.892Z,15.88
2022-10-26T09:53:50.300Z,16.04
2022-10-26T09:56:18.075Z,15.91
2022-10-26T09:58:59.606Z,15.80
2022-10-26T10:01:41.462Z,15.90
2022-10-26T10:07:19.649Z,15.89
2022-10-26T10:10:06.606Z,16.04
2022-10-26T10:12:33.272Z,16.02
2022-10-26T10:15:05.084Z,16.06
2022-10-26T10:17:50.852Z,16.23
2022-10-26T10:20:22.957Z,16.22
2022-10-26T10:23:05.046Z,15.98
2022-10-26T10:25:42.061Z,16.01
2022-10-26T10:28:26.737Z,16.08
2022-10-26T10:31:02.065Z,15.94
2022-10-26T10:33:40.611Z,15.65
2022-10-26T10:36:15.530Z,15.73
2022-10-26T10:38:49.751Z,15.68
2022-10-26T10:41:31.216Z,15.68
2022-10-26T10:44:27.935Z,16.01
2022-10-26T10:47:06.257Z,16.07
2022-10-26T10:49:33.932Z,16.13
2022-10-26T10:52:58.066Z,16.06
2022-10-26T10:55:24.808Z,15.92
2022-10-26T10:58:26.233Z,15.98
2022-10-26T11:00:56.677Z,16.12
2022-10-26T11:03:29.213Z,16.17
2022-10-26T11:06:27.615Z,16.20
2022-10-26T11:09:02.550Z,16.21
2022-10-26T11:11:40.584Z,16.11
2022-10-26T11:15:06.402Z,16.18
2022-10-26T11:18:12.460Z,16.25
2022-10-26T11:20:45.721Z,16.12
2022-10-26T11:30:48.921Z,16.53
2022-10-26T11:33:25.342Z,16.42
2022-10-26T11:39:44.515Z,16.38
2022-10-26T11:42:26.061Z,16.32
2022-10-26T11:45:27.559Z,16.23
2022-10-26T11:48:02.554Z,16.13
2022-10-26T11:50:43.363Z,16.30
2022-10-26T11:53:17.305Z,16.36
2022-10-26T11:55:50.402Z,16.43
2022-10-26T11:58:21.616Z,16.38
2022-10-26T12:00:52.500Z,16.33
2022-10-26T12:03:45.705Z,16.44
2022-10-26T12:06:37.743Z,16.25
2022-10-26T12:09:15.228Z,16.31
2022-10-26T12:11:49.970Z,16.63
2022-10-26T12:15:07.638Z,16.90
2022-10-26T12:18:08.737Z,16.95
2022-10-26T12:21:07.053Z,17.01
2022-10-26T12:23:51.165Z,16.95
2022-10-26T12:26:24.199Z,16.88
2022-10-26T12:29:02.968Z,16.98
2022-10-26T12:31:35.400Z,16.88
2022-10-26T12:34:25.592Z,16.89
2022-10-26T12:36:54.824Z,17.14
2022-10-26T12:39:50.878Z,17.27
2022-10-26T12:42:28.073Z,17.40
2022-10-26T12:44:57.500Z,17.39
2022-10-26T12:47:33.223Z,17.45
2022-10-26T12:50:09.424Z,17.55
2022-10-26T12:53:19.883Z,17.61
2022-10-26T12:56:05.418Z,17.61
2022-10-26T12:59:03.717Z,17.69
2022-10-26T13:04:46.229Z,17.76
2022-10-26T13:07:21.491Z,17.89
2022-10-26T13:10:00.042Z,17.66
2022-10-26T13:12:28.290Z,17.80
2022-10-26T13:15:03.963Z,17.82
2022-10-26T13:20:10.429Z,17.60
2022-10-26T13:22:46.674Z,17.56
2022-10-26T13:28:55.220Z,17.60
2022-10-26T13:31:41.613Z,17.41
2022-10-26T13:34:19.519Z,17.49
2022-10-26T13:36:57.751Z,17.44
2022-10-26T13:39:32.484Z,17.59
2022-10-26T13:42:00.381Z,17.63
2022-10-26T13:44:52.575Z,17.57
2022-10-26T13:47:46.957Z,17.51
2022-10-26T13:50:22.814Z,17.48
2022-10-26T13:52:53.576Z,17.52
2022-10-26T13:55:25.224Z,17.42
2022-10-26T13:58:22.573Z,17.46
2022-10-26T14:01:04.519Z,17.48
2022-10-26T14:03:33.843Z,17.44
2022-10-26T14:06:00.843Z,17.54
2022-10-26T14:08:27.417Z,17.40
2022-10-26T14:11:00.940Z,17.40
2022-10-26T14:13:28.973Z,17.55
2022-10-26T14:15:58.017Z,17.70
2022-10-26T14:18:30.695Z,17.67
2022-10-26T14:21:00.197Z,17.69
2022-10-26T14:23:29.855Z,17.69
2022-10-26T14:25:58.867Z,17.78
2022-10-26T14:28:28.903Z,17.71
2022-10-26T14:31:13.991Z,17.56
2022-10-26T14:33:46.080Z,17.66
2022-10-26T14:36:13.179Z,17.64
2022-10-26T14:38:45.019Z,17.63
2022-10-26T14:41:16.690Z,17.43
2022-10-26T14:43:44.479Z,17.38
2022-10-26T14:46:19.503Z,17.31
2022-10-26T14:48:53.417Z,17.24
2022-10-26T14:51:27.752Z,17.29
2022-10-26T14:53:59.366Z,17.11
2022-10-26T14:56:40.924Z,17.19
2022-10-26T14:59:31.615Z,17.35
2022-10-26T15:02:03.473Z,17.23
2022-10-26T15:04:55.603Z,17.25
2022-10-26T15:07:25.133Z,17.25
2022-10-26T15:09:53.295Z,17.21
2022-10-26T15:12:20.828Z,17.22
2022-10-26T15:14:51.076Z,17.24
2022-10-26T15:17:32.176Z,17.21
2022-10-26T15:20:05.667Z,17.16
2022-10-26T15:22:33.502Z,17.10
2022-10-26T15:25:04.199Z,17.07
2022-10-26T15:27:31.004Z,16.97
2022-10-26T15:30:19.265Z,16.70
2022-10-26T15:32:46.448Z,16.77
2022-10-26T15:35:30.102Z,16.82
2022-10-26T15:38:01.045Z,16.74
2022-10-26T15:40:31.912Z,16.85
2022-10-26T15:43:01.918Z,16.86
2022-10-26T15:45:38.461Z,16.87
2022-10-26T15:48:27.077Z,16.86
2022-10-26T15:50:53.585Z,16.84
2022-10-26T15:53:28.820Z,16.82
2022-10-26T15:55:57.979Z,16.83
2022-10-26T15:58:24.703Z,16.82
2022-10-26T16:00:51.666Z,16.76
2022-10-26T16:03:24.876Z,16.75
2022-10-26T16:06:00.644Z,16.71
2022-10-26T16:08:30.200Z,16.70
2022-10-26T16:10:58.854Z,16.68
2022-10-26T16:13:27.682Z,16.63
2022-10-26T16:15:54.081Z,16.60
2022-10-26T16:18:20.687Z,16.53
2022-10-26T16:20:51.999Z,16.54
2022-10-26T16:23:25.773Z,16.55
2022-10-26T16:25:52.341Z,16.50
2022-10-26T16:28:21.185Z,16.39
2022-10-26T16:30:47.666Z,16.34
2022-10-26T16:33:14.202Z,16.33
2022-10-26T16:35:40.764Z,16.34
2022-10-26T16:38:10.276Z,16.42
2022-10-26T16:40:42.575Z,16.35
2022-10-26T16:43:09.196Z,16.27
2022-10-26T16:45:35.693Z,16.32
2022-10-26T16:48:05.920Z,16.42
2022-10-26T16:50:36.183Z,16.44
2022-10-26T16:53:05.566Z,16.39
2022-10-26T16:55:34.656Z,16.41
2022-10-26T16:58:03.426Z,16.19
2022-10-26T17:00:29.997Z,16.22
2022-10-26T17:02:56.559Z,16.10
2022-10-26T17:05:30.958Z,16.02
2022-10-26T17:07:57.434Z,16.00
2022-10-26T17:10:25.744Z,16.02
2022-10-26T17:12:52.549Z,16.03
2022-10-26T17:15:22.430Z,16.04
2022-10-26T17:17:49.815Z,16.06
2022-10-26T17:20:18.897Z,16.05
2022-10-26T17:22:45.483Z,15.85
2022-10-26T17:25:11.985Z,15.88
2022-10-26T17:27:46.400Z,16.00
2022-10-26T17:30:14.171Z,16.05
2022-10-26T17:32:40.692Z,16.09
2022-10-26T17:35:07.475Z,16.04
2022-10-26T17:37:37.645Z,15.95
2022-10-26T17:40:04.911Z,15.90
2022-10-26T17:42:33.920Z,15.85
2022-10-26T17:45:03.192Z,15.84
2022-10-26T17:47:32.019Z,15.86
2022-10-26T17:50:01.205Z,15.85
2022-10-26T17:52:30.398Z,15.90
2022-10-26T17:55:01.843Z,15.92
2022-10-26T17:57:29.412Z,15.84
2022-10-26T17:59:58.935Z,15.63
2022-10-26T18:02:25.759Z,15.56
2022-10-26T18:04:57.271Z,15.54
2022-10-26T18:07:26.144Z,15.51
2022-10-26T18:09:54.990Z,15.52
2022-10-26T18:12:23.862Z,15.44
2022-10-26T18:14:50.405Z,15.41
2022-10-26T18:17:19.024Z,15.36
2022-10-26T18:19:45.576Z,15.34
2022-10-26T18:22:12.078Z,15.41
2022-10-26T18:24:38.596Z,15.47
2022-10-26T18:27:06.316Z,15.27
2022-10-26T18:29:39.726Z,15.35
2022-10-26T18:32:06.493Z,15.14
2022-10-26T18:34:32.985Z,15.33
2022-10-26T18:36:59.482Z,15.29
2022-10-26T18:39:28.531Z,14.86
2022-10-26T18:41:55.056Z,14.95
2022-10-26T18:44:22.723Z,14.85
2022-10-26T18:46:52.018Z,14.63
2022-10-26T18:49:21.751Z,14.55
2022-10-26T18:51:48.600Z,14.72
2022-10-26T18:54:15.143Z,14.79
2022-10-26T18:56:41.742Z,14.64
2022-10-26T18:59:08.296Z,14.61
2022-10-26T19:01:39.472Z,14.62
2022-10-26T19:04:10.243Z,14.55
2022-10-26T19:06:48.087Z,14.50
2022-10-26T19:09:19.350Z,14.43
2022-10-26T19:11:45.986Z,14.30
2022-10-26T19:14:15.275Z,14.35
2022-10-26T19:16:53.572Z,14.34
2022-10-26T19:19:29.062Z,14.19
2022-10-26T19:22:01.036Z,14.13
2022-10-26T19:24:33.016Z,14.13
2022-10-26T19:27:03.165Z,13.63
2022-10-26T19:29:32.531Z,13.71
2022-10-26T19:32:02.926Z,13.89
2022-10-26T19:34:31.697Z,14.03
2022-10-26T19:37:00.507Z,14.03
2022-10-26T19:39:29.307Z,13.99
2022-10-26T19:41:58.259Z,14.03
2022-10-26T19:44:25.670Z,13.95
2022-10-26T19:46:57.043Z,13.94
2022-10-26T19:49:41.035Z,13.86
2022-10-26T19:52:07.610Z,13.74
2022-10-26T19:54:34.256Z,13.88
2022-10-26T19:57:00.738Z,13.89
2022-10-26T19:59:27.353Z,13.81
2022-10-26T20:02:00.339Z,13.83
2022-10-26T20:04:26.982Z,13.72
2022-10-26T20:06:55.795Z,13.61
2022-10-26T20:09:24.629Z,13.52
2022-10-26T20:11:51.173Z,13.64
2022-10-26T20:14:20.163Z,13.70
2022-10-26T20:16:46.744Z,13.77
2022-10-26T20:19:13.280Z,13.79
2022-10-26T20:21:59.542Z,13.68
2022-10-26T20:24:26.118Z,13.54
2022-10-26T20:26:55.137Z,13.61
2022-10-26T20:29:26.906Z,13.66
2022-10-26T20:31:56.336Z,13.27
2022-10-26T20:34:25.209Z,13.42
2022-10-26T20:36:51.707Z,13.45
2022-10-26T20:39:18.581Z,13.39
2022-10-26T20:41:48.419Z,13.28
2022-10-26T20:44:29.340Z,13.21
2022-10-26T20:46:56.157Z,13.19
2022-10-26T20:49:28.953Z,13.20
2022-10-26T20:52:20.000Z,13.06
2022-10-26T20:55:05.805Z,13.06
2022-10-26T20:57:35.695Z,12.60
2022-10-26T21:00:11.578Z,12.96
2022-10-26T21:02:40.812Z,13.01
2022-10-26T21:05:07.434Z,13.09
2022-10-26T21:07:33.972Z,13.10
2022-10-26T21:10:00.472Z,13.13
2022-10-26T21:12:29.217Z,13.22
2022-10-26T21:14:58.080Z,13.23
2022-10-26T21:17:29.487Z,13.19
2022-10-26T21:19:56.129Z,13.24
2022-10-26T21:22:24.744Z,13.29
2022-10-26T21:24:51.352Z,13.28
2022-10-26T21:27:22.546Z,13.21
2022-10-26T21:29:53.835Z,13.06
2022-10-26T21:32:22.842Z,12.97
2022-10-26T21:34:49.255Z,12.96
2022-10-26T21:37:18.045Z,12.91
2022-10-26T21:39:44.590Z,12.91
2022-10-26T21:42:11.078Z,12.33
2022-10-26T21:44:41.672Z,12.63
2022-10-26T21:47:09.256Z,12.86
2022-10-26T21:49:36.064Z,13.04
2022-10-26T21:52:02.716Z,13.11
2022-10-26T21:54:29.216Z,13.16
2022-10-26T21:56:58.110Z,13.22
2022-10-26T21:59:24.724Z,13.06
2022-10-26T22:01:55.892Z,13.24
2022-10-26T22:04:25.098Z,13.20
2022-10-26T22:06:51.605Z,13.28
2022-10-26T22:09:18.175Z,13.43
2022-10-26T22:11:44.700Z,13.39
2022-10-26T22:14:12.954Z,13.45
2022-10-26T22:16:39.450Z,13.27
2022-10-26T22:19:07.661Z,13.31
2022-10-26T22:21:40.005Z,13.04
2022-10-26T22:24:07.327Z,13.14
2022-10-26T22:26:38.367Z,13.05
2022-10-26T22:29:05.383Z,13.28
2022-10-26T22:31:35.179Z,13.50
2022-10-26T22:34:08.474Z,13.47
2022-10-26T22:36:35.375Z,13.55
2022-10-26T22:39:02.017Z,13.54
2022-10-26T22:41:30.646Z,13.44
2022-10-26T22:43:57.168Z,13.53
2022-10-26T22:46:27.766Z,13.52
2022-10-26T22:49:01.072Z,13.66
2022-10-26T22:51:30.715Z,13.64
2022-10-26T22:53:59.570Z,13.54
2022-10-26T22:56:30.236Z,13.52
2022-10-26T22:59:03.030Z,13.29
2022-10-26T23:01:32.709Z,13.25
2022-10-26T23:04:01.902Z,13.13
2022-10-26T23:06:32.014Z,13.11
2022-10-26T23:08:59.085Z,13.00
2022-10-26T23:11:28.164Z,12.92
2022-10-26T23:14:02.755Z,13.02
2022-10-26T23:16:30.299Z,12.93
2022-10-26T23:18:58.351Z,12.96
2022-10-26T23:23:54.311Z,12.81
2022-10-26T23:26:24.217Z,12.64
2022-10-26T23:28:52.809Z,12.44
2022-10-26T23:31:22.280Z,12.61
2022-10-26T23:33:56.181Z,12.60
2022-10-26T23:36:23.107Z,12.58
2022-10-26T23:38:51.900Z,12.22
2022-10-26T23:41:18.397Z,12.32
2022-10-26T23:43:47.624Z,12.31
2022-10-26T23:46:16.422Z,12.45
2022-10-26T23:48:42.992Z,12.46
2022-10-26T23:51:09.480Z,12.50
2022-10-26T23:53:36.056Z,12.68
2022-10-26T23:56:02.545Z,12.70
2022-10-26T23:58:29.081Z,12.59
